createdAt,value
2022-11-12T00:00:19.479Z,7.99
2022-11-12T00:01:19.703Z,8.01
2022-11-12T00:02:19.925Z,7.98
2022-11-12T00:03:20.124Z,7.96
2022-11-12T00:04:20.390Z,7.98
2022-11-12T00:05:20.478Z,7.96
2022-11-12T00:06:20.708Z,7.91
2022-11-12T00:07:20.920Z,7.91
2022-11-12T00:08:21.126Z,7.91
2022-11-12T00:09:21.333Z,7.91
2022-11-12T00:10:21.545Z,7.91
2022-11-12T00:11:21.771Z,7.91
2022-11-12T00:12:21.980Z,7.93
2022-11-12T00:13:22.196Z,7.93
2022-11-12T00:14:22.409Z,7.91
2022-11-12T00:15:22.616Z,7.88
2022-11-12T00:16:22.844Z,7.90
2022-11-12T00:17:23.051Z,7.87
2022-11-12T00:18:23.384Z,7.87
2022-11-12T00:19:23.407Z,7.84
2022-11-12T00:20:23.614Z,7.84
2022-11-12T00:21:23.830Z,7.84
2022-11-12T00:22:24.038Z,7.85
2022-11-12T00:23:24.243Z,7.87
2022-11-12T00:24:24.458Z,7.91
2022-11-12T00:25:24.663Z,7.91
2022-11-12T00:26:24.901Z,7.93
2022-11-12T00:27:25.112Z,7.93
2022-11-12T00:28:25.703Z,7.90
2022-11-12T00:29:25.574Z,7.87
2022-11-12T00:30:25.793Z,7.87
2022-11-12T00:31:26.034Z,7.85
2022-11-12T00:32:26.193Z,7.90
2022-11-12T00:33:26.406Z,7.90
2022-11-12T00:34:26.607Z,7.90
2022-11-12T00:35:26.846Z,7.91
2022-11-12T00:36:27.086Z,7.90
2022-11-12T00:37:27.298Z,7.90
2022-11-12T00:38:27.805Z,7.93
2022-11-12T00:39:27.675Z,7.91
2022-11-12T00:40:27.898Z,7.93
2022-11-12T00:41:28.132Z,7.91
2022-11-12T00:42:28.351Z,7.90
2022-11-12T00:43:28.576Z,7.88
2022-11-12T00:44:28.803Z,7.87
2022-11-12T00:45:29.020Z,7.87
2022-11-12T00:46:29.262Z,7.87
2022-11-12T00:47:29.484Z,7.87
2022-11-12T00:48:29.798Z,7.87
2022-11-12T00:49:29.917Z,7.87
2022-11-12T00:50:30.141Z,7.87
2022-11-12T00:51:30.379Z,7.88
2022-11-12T00:52:30.602Z,7.90
2022-11-12T00:53:30.831Z,7.90
2022-11-12T00:54:31.051Z,7.93
2022-11-12T00:55:31.271Z,7.93
2022-11-12T00:56:35.396Z,7.95
2022-11-12T00:57:31.731Z,7.95
2022-11-12T00:58:31.969Z,7.95
2022-11-12T00:59:32.200Z,7.93
2022-11-12T01:00:32.431Z,7.93
2022-11-12T01:01:32.704Z,7.95
2022-11-12T01:02:37.021Z,7.95
2022-11-12T01:03:34.112Z,7.96
2022-11-12T01:04:33.317Z,7.98
2022-11-12T01:05:33.537Z,7.98
2022-11-12T01:06:33.822Z,7.98
2022-11-12T01:07:34.008Z,7.96
2022-11-12T01:08:34.258Z,7.96
2022-11-12T01:09:34.445Z,7.96
2022-11-12T01:10:34.650Z,7.98
2022-11-12T01:11:34.869Z,7.96
2022-11-12T01:12:35.075Z,7.98
2022-11-12T01:13:38.790Z,7.96
2022-11-12T01:14:36.451Z,7.95
2022-11-12T01:15:35.666Z,7.93
2022-11-12T01:16:35.907Z,7.91
2022-11-12T01:17:43.153Z,7.90
2022-11-12T01:18:36.332Z,7.91
2022-11-12T01:19:36.548Z,7.90
2022-11-12T01:20:36.761Z,7.88
2022-11-12T01:21:36.984Z,7.88
2022-11-12T01:22:37.216Z,7.87
2022-11-12T01:23:37.430Z,7.87
2022-11-12T01:24:37.731Z,7.85
2022-11-12T01:25:37.830Z,7.84
2022-11-12T01:26:38.089Z,7.85
2022-11-12T01:27:38.229Z,7.83
2022-11-12T01:28:38.489Z,7.81
2022-11-12T01:29:38.702Z,7.80
2022-11-12T01:30:38.908Z,7.80
2022-11-12T01:31:39.145Z,7.78
2022-11-12T01:32:39.357Z,7.75
2022-11-12T01:33:39.589Z,7.75
2022-11-12T01:34:39.807Z,7.72
2022-11-12T01:35:40.019Z,7.70
2022-11-12T01:36:40.357Z,7.67
2022-11-12T01:37:40.490Z,7.66
2022-11-12T01:38:40.760Z,7.64
2022-11-12T01:39:40.976Z,7.59
2022-11-12T01:40:41.096Z,7.58
2022-11-12T01:41:41.360Z,7.58
2022-11-12T01:42:42.023Z,7.53
2022-11-12T01:43:42.193Z,7.56
2022-11-12T01:44:41.838Z,7.53
2022-11-12T01:45:42.048Z,7.51
2022-11-12T01:46:42.282Z,7.51
2022-11-12T01:47:42.487Z,7.53
2022-11-12T01:48:42.703Z,7.51
2022-11-12T01:49:46.094Z,7.51
2022-11-12T01:50:44.070Z,7.55
2022-11-12T01:51:43.310Z,7.56
2022-11-12T01:52:43.525Z,7.58
2022-11-12T01:53:43.725Z,7.59
2022-11-12T01:54:43.943Z,7.59
2022-11-12T01:55:44.177Z,7.59
2022-11-12T01:56:44.411Z,7.61
2022-11-12T01:57:44.628Z,7.66
2022-11-12T01:58:44.840Z,7.69
2022-11-12T01:59:45.044Z,7.72
2022-11-12T02:00:45.293Z,7.74
2022-11-12T02:01:45.516Z,7.77
2022-11-12T02:02:45.741Z,7.78
2022-11-12T02:03:45.956Z,7.78
2022-11-12T02:04:46.173Z,7.81
2022-11-12T02:05:46.377Z,7.83
2022-11-12T02:06:46.635Z,7.81
2022-11-12T02:07:46.831Z,7.83
2022-11-12T02:08:47.056Z,7.83
2022-11-12T02:09:47.270Z,7.85
2022-11-12T02:10:47.494Z,7.85
2022-11-12T02:11:47.737Z,7.88
2022-11-12T02:12:47.957Z,7.88
2022-11-12T02:13:48.208Z,7.87
2022-11-12T02:14:49.372Z,7.88
2022-11-12T02:15:48.668Z,7.88
2022-11-12T02:16:48.873Z,7.88
2022-11-12T02:17:49.111Z,7.91
2022-11-12T02:18:49.332Z,7.90
2022-11-12T02:19:49.545Z,7.90
2022-11-12T02:20:49.765Z,7.90
2022-11-12T02:21:50.012Z,7.90
2022-11-12T02:22:50.224Z,7.88
2022-11-12T02:23:50.437Z,7.88
2022-11-12T02:24:57.601Z,7.88
2022-11-12T02:25:50.902Z,7.88
2022-11-12T02:26:51.158Z,7.88
2022-11-12T02:27:51.378Z,7.90
2022-11-12T02:28:52.547Z,7.87
2022-11-12T02:29:51.760Z,7.85
2022-11-12T02:30:51.991Z,7.83
2022-11-12T02:31:52.405Z,7.81
2022-11-12T02:32:52.918Z,7.80
2022-11-12T02:33:52.578Z,7.78
2022-11-12T02:34:52.803Z,7.77
2022-11-12T02:35:53.028Z,7.75
2022-11-12T02:36:53.263Z,7.77
2022-11-12T02:37:53.504Z,7.77
2022-11-12T02:38:53.724Z,7.77
2022-11-12T02:39:53.949Z,7.78
2022-11-12T02:40:54.181Z,7.78
2022-11-12T02:41:54.432Z,7.78
2022-11-12T02:42:54.657Z,7.77
2022-11-12T02:43:54.883Z,7.77
2022-11-12T02:44:55.105Z,7.81
2022-11-12T02:45:55.802Z,7.80
2022-11-12T02:46:55.616Z,7.80
2022-11-12T02:47:55.835Z,7.80
2022-11-12T02:48:56.059Z,7.80
2022-11-12T02:49:56.289Z,7.78
2022-11-12T02:50:56.501Z,7.80
2022-11-12T02:51:56.747Z,7.78
2022-11-12T02:52:56.964Z,7.78
2022-11-12T02:53:57.155Z,7.81
2022-11-12T02:54:57.386Z,7.83
2022-11-12T02:55:57.611Z,7.85
2022-11-12T02:56:57.851Z,7.87
2022-11-12T02:57:58.055Z,7.87
2022-11-12T02:58:58.272Z,7.90
2022-11-12T02:59:58.542Z,7.93
2022-11-12T03:00:58.735Z,7.95
2022-11-12T03:01:58.911Z,7.96
2022-11-12T03:02:59.395Z,7.96
2022-11-12T03:04:03.167Z,7.98
2022-11-12T03:04:59.485Z,7.98
2022-11-12T03:06:00.080Z,7.96
2022-11-12T03:07:00.015Z,7.98
2022-11-12T03:08:00.196Z,7.95
2022-11-12T03:09:00.411Z,7.93
2022-11-12T03:10:00.621Z,7.91
2022-11-12T03:11:01.789Z,7.93
2022-11-12T03:12:01.037Z,7.88
2022-11-12T03:13:01.244Z,7.88
2022-11-12T03:14:01.459Z,7.88
2022-11-12T03:15:01.672Z,7.85
2022-11-12T03:16:01.884Z,7.84
2022-11-12T03:17:02.117Z,7.84
2022-11-12T03:18:02.335Z,7.83
2022-11-12T03:19:02.999Z,7.83
2022-11-12T03:20:02.784Z,7.81
2022-11-12T03:21:02.978Z,7.78
2022-11-12T03:22:03.209Z,7.78
2022-11-12T03:23:03.412Z,7.75
2022-11-12T03:24:03.635Z,7.74
2022-11-12T03:25:03.860Z,7.74
2022-11-12T03:26:04.063Z,7.72
2022-11-12T03:27:04.295Z,7.70
2022-11-12T03:28:04.495Z,7.70
2022-11-12T03:29:04.710Z,7.69
2022-11-12T03:30:04.914Z,7.69
2022-11-12T03:31:05.118Z,7.66
2022-11-12T03:32:05.343Z,7.66
2022-11-12T03:33:05.537Z,7.66
2022-11-12T03:34:05.754Z,7.66
2022-11-12T03:35:05.965Z,7.66
2022-11-12T03:36:06.172Z,7.64
2022-11-12T03:37:06.393Z,7.64
2022-11-12T03:38:06.703Z,7.59
2022-11-12T03:39:06.790Z,7.56
2022-11-12T03:40:06.996Z,7.55
2022-11-12T03:41:07.201Z,7.51
2022-11-12T03:42:07.421Z,7.48
2022-11-12T03:43:07.625Z,7.48
2022-11-12T03:44:07.835Z,7.46
2022-11-12T03:45:08.045Z,7.43
2022-11-12T03:46:08.251Z,7.43
2022-11-12T03:47:08.479Z,7.43
2022-11-12T03:48:08.693Z,7.44
2022-11-12T03:49:08.885Z,7.43
2022-11-12T03:50:09.087Z,7.39
2022-11-12T03:51:09.293Z,7.37
2022-11-12T03:52:09.538Z,7.36
2022-11-12T03:53:09.730Z,7.33
2022-11-12T03:54:09.940Z,7.33
2022-11-12T03:55:10.153Z,7.33
2022-11-12T03:56:10.370Z,7.33
2022-11-12T03:57:10.599Z,7.33
2022-11-12T03:58:10.820Z,7.36
2022-11-12T03:59:11.039Z,7.33
2022-11-12T04:00:11.277Z,7.33
2022-11-12T04:01:11.517Z,7.32
2022-11-12T04:02:11.756Z,7.29
2022-11-12T04:03:11.967Z,7.28
2022-11-12T04:04:12.201Z,7.25
2022-11-12T04:05:12.402Z,7.25
2022-11-12T04:06:12.622Z,7.23
2022-11-12T04:07:12.910Z,7.25
2022-11-12T04:08:13.116Z,7.25
2022-11-12T04:09:13.345Z,7.23
2022-11-12T04:10:13.572Z,7.22
2022-11-12T04:11:13.813Z,7.19
2022-11-12T04:12:14.075Z,7.18
2022-11-12T04:13:14.303Z,7.15
2022-11-12T04:14:14.530Z,7.14
2022-11-12T04:15:14.769Z,7.13
2022-11-12T04:16:14.990Z,7.11
2022-11-12T04:17:15.224Z,7.11
2022-11-12T04:18:15.451Z,7.11
2022-11-12T04:19:15.673Z,7.07
2022-11-12T04:20:15.893Z,7.04
2022-11-12T04:21:16.120Z,7.00
2022-11-12T04:22:16.495Z,7.00
2022-11-12T04:23:16.570Z,7.00
2022-11-12T04:24:16.980Z,6.97
2022-11-12T04:25:16.971Z,6.95
2022-11-12T04:26:17.205Z,6.93
2022-11-12T04:27:17.440Z,6.90
2022-11-12T04:28:17.651Z,6.87
2022-11-12T04:29:17.858Z,6.83
2022-11-12T04:30:18.076Z,6.78
2022-11-12T04:31:18.370Z,6.78
2022-11-12T04:32:18.508Z,6.82
2022-11-12T04:33:18.718Z,6.83
2022-11-12T04:34:18.984Z,6.85
2022-11-12T04:35:19.181Z,6.83
2022-11-12T04:36:19.412Z,6.83
2022-11-12T04:37:23.334Z,6.83
2022-11-12T04:38:19.857Z,6.83
2022-11-12T04:39:20.072Z,6.83
2022-11-12T04:40:20.286Z,6.86
2022-11-12T04:41:20.495Z,6.90
2022-11-12T04:42:20.733Z,6.92
2022-11-12T04:43:20.956Z,6.87
2022-11-12T04:44:21.180Z,6.86
2022-11-12T04:45:22.355Z,6.86
2022-11-12T04:46:21.563Z,6.85
2022-11-12T04:47:21.809Z,6.82
2022-11-12T04:48:22.035Z,6.80
2022-11-12T04:49:22.262Z,6.75
2022-11-12T04:50:22.464Z,6.75
2022-11-12T04:51:26.683Z,6.75
2022-11-12T04:52:22.909Z,6.75
2022-11-12T04:53:23.124Z,6.75
2022-11-12T04:54:23.353Z,6.71
2022-11-12T04:55:23.570Z,6.65
2022-11-12T04:56:23.793Z,6.65
2022-11-12T04:57:24.067Z,6.65
2022-11-12T04:58:24.493Z,6.67
2022-11-12T04:59:24.345Z,6.64
2022-11-12T05:00:24.571Z,6.62
2022-11-12T05:01:24.772Z,6.59
2022-11-12T05:02:24.960Z,6.57
2022-11-12T05:03:25.118Z,6.54
2022-11-12T05:04:25.272Z,6.50
2022-11-12T05:05:28.575Z,6.50
2022-11-12T05:06:26.764Z,6.47
2022-11-12T05:07:25.938Z,6.46
2022-11-12T05:08:26.524Z,6.46
2022-11-12T05:09:30.077Z,6.44
2022-11-12T05:10:26.498Z,6.44
2022-11-12T05:11:26.723Z,6.41
2022-11-12T05:12:26.951Z,6.36
2022-11-12T05:13:27.172Z,6.34
2022-11-12T05:14:27.407Z,6.34
2022-11-12T05:15:27.629Z,6.32
2022-11-12T05:16:27.846Z,6.25
2022-11-12T05:17:28.078Z,6.19
2022-11-12T05:18:28.488Z,6.19
2022-11-12T05:19:28.576Z,6.19
2022-11-12T05:20:28.785Z,6.19
2022-11-12T05:21:29.005Z,6.19
2022-11-12T05:22:43.415Z,6.16
2022-11-12T05:23:30.429Z,6.13
2022-11-12T05:24:41.688Z,6.10
2022-11-12T05:25:30.836Z,6.09
2022-11-12T05:26:30.065Z,6.10
2022-11-12T05:27:30.304Z,6.09
2022-11-12T05:28:30.543Z,6.06
2022-11-12T05:29:30.761Z,6.10
2022-11-12T05:30:31.935Z,6.15
2022-11-12T05:31:31.158Z,6.13
2022-11-12T05:32:31.398Z,6.13
2022-11-12T05:33:31.635Z,6.12
2022-11-12T05:34:31.869Z,6.10
2022-11-12T05:35:32.119Z,6.12
2022-11-12T05:36:32.365Z,6.12
2022-11-12T05:37:32.605Z,6.10
2022-11-12T05:38:32.842Z,6.09
2022-11-12T05:39:33.056Z,6.12
2022-11-12T05:40:33.280Z,6.10
2022-11-12T05:41:58.075Z,6.07
2022-11-12T05:42:34.687Z,6.07
2022-11-12T05:43:33.839Z,6.05
2022-11-12T05:44:35.007Z,6.02
2022-11-12T05:45:35.297Z,6.02
2022-11-12T05:46:34.533Z,5.99
2022-11-12T05:47:34.754Z,5.98
2022-11-12T05:48:35.014Z,6.02
2022-11-12T05:49:35.152Z,6.06
2022-11-12T05:50:51.360Z,6.07
2022-11-12T05:51:36.560Z,6.07
2022-11-12T05:52:35.806Z,6.05
2022-11-12T05:53:36.058Z,6.05
2022-11-12T05:54:36.302Z,5.99
2022-11-12T05:55:37.279Z,5.95
2022-11-12T05:56:36.803Z,5.95
2022-11-12T05:57:37.064Z,5.98
2022-11-12T05:58:37.315Z,5.98
2022-11-12T05:59:37.554Z,5.98
2022-11-12T06:00:37.794Z,5.99
2022-11-12T06:01:38.037Z,6.01
2022-11-12T06:02:38.387Z,5.99
2022-11-12T06:03:38.522Z,5.99
2022-11-12T06:04:38.771Z,5.94
2022-11-12T06:05:39.041Z,5.94
2022-11-12T06:06:39.235Z,5.92
2022-11-12T06:07:39.475Z,5.95
2022-11-12T06:08:39.707Z,5.98
2022-11-12T06:09:39.926Z,5.98
2022-11-12T06:10:40.154Z,6.01
2022-11-12T06:11:40.370Z,5.99
2022-11-12T06:12:40.623Z,5.98
2022-11-12T06:13:40.851Z,6.01
2022-11-12T06:14:41.079Z,5.98
2022-11-12T06:15:41.299Z,6.01
2022-11-12T06:16:41.563Z,6.01
2022-11-12T06:17:41.787Z,6.01
2022-11-12T06:18:42.027Z,6.05
2022-11-12T06:19:42.246Z,6.06
2022-11-12T06:20:42.498Z,6.06
2022-11-12T06:21:42.728Z,6.06
2022-11-12T06:22:42.956Z,6.06
2022-11-12T06:23:43.201Z,6.06
2022-11-12T06:24:43.415Z,6.06
2022-11-12T06:25:44.586Z,6.02
2022-11-12T06:26:43.916Z,6.01
2022-11-12T06:27:44.153Z,6.05
2022-11-12T06:28:44.418Z,6.06
2022-11-12T06:29:44.550Z,6.09
2022-11-12T06:30:44.779Z,6.09
2022-11-12T06:31:45.004Z,6.12
2022-11-12T06:32:45.269Z,6.12
2022-11-12T06:33:45.499Z,6.12
2022-11-12T06:34:45.720Z,6.12
2022-11-12T06:35:45.959Z,6.12
2022-11-12T06:36:46.208Z,6.16
2022-11-12T06:37:46.437Z,6.19
2022-11-12T06:38:46.678Z,6.22
2022-11-12T06:39:46.905Z,6.26
2022-11-12T06:40:47.137Z,6.26
2022-11-12T06:41:47.356Z,6.31
2022-11-12T06:42:47.601Z,6.31
2022-11-12T06:43:47.824Z,6.35
2022-11-12T06:44:48.094Z,6.36
2022-11-12T06:45:48.292Z,6.39
2022-11-12T06:46:48.510Z,6.39
2022-11-12T06:47:48.754Z,6.41
2022-11-12T06:48:48.985Z,6.41
2022-11-12T06:49:49.210Z,6.43
2022-11-12T06:50:49.440Z,6.44
2022-11-12T06:51:49.654Z,6.47
2022-11-12T06:52:49.895Z,6.50
2022-11-12T06:53:50.108Z,6.52
2022-11-12T06:54:50.324Z,6.54
2022-11-12T06:55:50.541Z,6.59
2022-11-12T06:56:50.758Z,6.65
2022-11-12T06:57:51.017Z,6.70
2022-11-12T06:58:51.240Z,6.70
2022-11-12T06:59:51.462Z,6.72
2022-11-12T07:00:51.683Z,6.71
2022-11-12T07:01:51.937Z,6.71
2022-11-12T07:02:52.175Z,6.72
2022-11-12T07:03:52.411Z,6.74
2022-11-12T07:04:52.632Z,6.82
2022-11-12T07:05:53.802Z,6.87
2022-11-12T07:06:53.085Z,6.95
2022-11-12T07:07:53.205Z,7.03
2022-11-12T07:08:53.423Z,7.08
2022-11-12T07:09:53.642Z,7.14
2022-11-12T07:10:54.824Z,7.15
2022-11-12T07:11:54.997Z,7.15
2022-11-12T07:12:54.242Z,7.23
2022-11-12T07:13:55.405Z,7.37
2022-11-12T07:14:54.629Z,7.61
2022-11-12T07:15:54.990Z,8.17
2022-11-12T07:16:55.112Z,8.61
2022-11-12T07:17:55.430Z,8.92
2022-11-12T07:18:55.510Z,9.12
2022-11-12T07:20:00.735Z,9.44
2022-11-12T07:20:56.892Z,9.55
2022-11-12T07:21:56.103Z,9.69
2022-11-12T07:22:56.324Z,9.77
2022-11-12T07:23:56.530Z,9.91
2022-11-12T07:24:56.725Z,10.15
2022-11-12T07:25:56.953Z,10.30
2022-11-12T07:26:57.161Z,10.42
2022-11-12T07:27:57.369Z,10.46
2022-11-12T07:28:58.513Z,10.59
2022-11-12T07:29:57.858Z,10.82
2022-11-12T07:30:57.933Z,11.07
2022-11-12T07:31:58.117Z,11.16
2022-11-12T07:32:58.322Z,11.37
2022-11-12T07:33:58.506Z,11.68
2022-11-12T07:34:58.690Z,11.96
2022-11-12T07:35:58.878Z,12.21
2022-11-12T07:36:59.053Z,12.30
2022-11-12T07:37:59.753Z,12.51
2022-11-12T07:38:59.380Z,12.58
2022-11-12T07:39:59.538Z,12.86
2022-11-12T07:40:59.747Z,13.02
2022-11-12T07:41:59.927Z,12.58
2022-11-12T07:43:00.105Z,12.43
2022-11-12T07:44:00.269Z,12.61
2022-11-12T07:45:00.444Z,12.69
2022-11-12T07:46:02.713Z,12.78
2022-11-12T07:47:01.758Z,12.65
2022-11-12T07:48:00.946Z,12.61
2022-11-12T07:49:01.110Z,12.80
2022-11-12T07:50:01.287Z,13.11
2022-11-12T07:51:02.207Z,13.42
2022-11-12T07:52:01.649Z,13.40
2022-11-12T07:53:02.777Z,13.60
2022-11-12T07:54:01.839Z,13.61
2022-11-12T07:55:02.081Z,13.47
2022-11-12T07:56:02.133Z,13.52
2022-11-12T07:57:02.594Z,13.54
2022-11-12T07:58:02.433Z,13.62
2022-11-12T07:59:06.330Z,13.70
2022-11-12T08:00:02.760Z,13.67
2022-11-12T08:01:02.827Z,13.65
2022-11-12T08:02:02.973Z,13.70
2022-11-12T08:03:03.143Z,13.52
2022-11-12T08:04:03.289Z,13.47
2022-11-12T08:05:06.190Z,13.79
2022-11-12T08:06:04.524Z,14.13
2022-11-12T08:07:03.773Z,14.26
2022-11-12T08:08:03.996Z,14.00
2022-11-12T08:09:04.188Z,14.16
2022-11-12T08:10:04.079Z,14.19
2022-11-12T08:11:05.324Z,14.34
2022-11-12T08:12:04.371Z,14.36
2022-11-12T08:13:04.576Z,14.19
2022-11-12T08:14:04.729Z,14.41
2022-11-12T08:15:04.770Z,14.36
2022-11-12T08:16:04.897Z,14.52
2022-11-12T08:17:05.037Z,14.70
2022-11-12T08:18:05.180Z,14.63
2022-11-12T08:19:05.317Z,14.58
2022-11-12T08:20:05.535Z,14.56
2022-11-12T08:21:05.536Z,14.52
2022-11-12T08:22:05.662Z,14.78
2022-11-12T08:23:05.837Z,15.05
2022-11-12T08:24:05.967Z,15.47
2022-11-12T08:25:06.097Z,15.78
2022-11-12T08:26:06.208Z,16.08
2022-11-12T08:27:06.337Z,15.72
2022-11-12T08:28:06.473Z,15.66
2022-11-12T08:29:08.526Z,15.47
2022-11-12T08:30:06.759Z,15.66
2022-11-12T08:31:07.019Z,16.06
2022-11-12T08:32:07.083Z,16.28
2022-11-12T08:33:07.133Z,16.80
2022-11-12T08:34:07.254Z,16.91
2022-11-12T08:35:07.374Z,16.57
2022-11-12T08:36:07.478Z,16.47
2022-11-12T08:37:07.600Z,16.31
2022-11-12T08:38:07.739Z,16.24
2022-11-12T08:39:07.845Z,16.64
2022-11-12T08:40:07.952Z,17.07
2022-11-12T08:41:08.065Z,17.24
2022-11-12T08:42:08.203Z,17.32
2022-11-12T08:43:08.312Z,17.27
2022-11-12T08:44:08.997Z,17.20
2022-11-12T08:45:08.512Z,17.27
2022-11-12T08:46:08.637Z,17.49
2022-11-12T08:47:08.869Z,17.87
2022-11-12T08:48:08.887Z,18.15
2022-11-12T08:49:08.985Z,18.06
2022-11-12T08:50:09.074Z,18.13
2022-11-12T08:51:09.166Z,18.34
2022-11-12T08:52:09.272Z,18.46
2022-11-12T08:53:09.397Z,18.36
2022-11-12T08:54:09.492Z,18.42
2022-11-12T08:55:09.576Z,18.48
2022-11-12T08:56:09.661Z,18.61
2022-11-12T08:57:09.757Z,18.36
2022-11-12T08:58:09.864Z,18.64
2022-11-12T08:59:10.001Z,18.85
2022-11-12T09:00:10.023Z,18.89
2022-11-12T09:01:10.088Z,18.98
2022-11-12T09:02:10.021Z,18.98
2022-11-12T09:03:10.157Z,19.01
2022-11-12T09:04:10.134Z,19.15
2022-11-12T09:05:10.219Z,19.08
2022-11-12T09:06:10.367Z,19.09
2022-11-12T09:07:28.571Z,19.26
2022-11-12T09:08:11.439Z,19.42
2022-11-12T09:09:10.453Z,19.57
2022-11-12T09:10:10.431Z,19.66
2022-11-12T09:11:10.518Z,19.87
2022-11-12T09:12:16.369Z,19.99
2022-11-12T09:13:11.627Z,19.90
2022-11-12T09:14:10.731Z,19.87
2022-11-12T09:16:11.894Z,19.70
2022-11-12T09:17:10.840Z,19.79
2022-11-12T09:18:10.920Z,19.93
2022-11-12T09:19:11.006Z,19.78
2022-11-12T09:20:11.086Z,19.34
2022-11-12T09:21:11.309Z,19.11
2022-11-12T09:22:11.262Z,19.04
2022-11-12T09:23:11.333Z,19.59
2022-11-12T09:24:11.434Z,20.07
2022-11-12T09:25:11.498Z,20.00
2022-11-12T09:26:11.573Z,20.17
2022-11-12T09:27:11.665Z,20.29
2022-11-12T09:28:11.740Z,20.34
2022-11-12T09:29:11.824Z,20.44
2022-11-12T09:30:11.882Z,20.42
2022-11-12T09:31:11.942Z,20.60
2022-11-12T09:32:12.065Z,20.58
2022-11-12T09:33:12.045Z,20.18
2022-11-12T09:34:12.134Z,20.04
2022-11-12T09:35:12.204Z,19.94
2022-11-12T09:36:12.366Z,20.14
2022-11-12T09:37:12.347Z,19.94
2022-11-12T09:38:12.420Z,20.17
2022-11-12T09:39:12.524Z,19.90
2022-11-12T09:40:13.196Z,19.97
2022-11-12T09:41:12.598Z,20.34
2022-11-12T09:42:12.674Z,20.78
2022-11-12T09:43:12.742Z,21.37
2022-11-12T09:44:12.845Z,21.66
2022-11-12T09:45:12.907Z,21.80
2022-11-12T09:46:27.363Z,22.34
2022-11-12T09:47:13.985Z,22.62
2022-11-12T09:48:13.079Z,22.76
2022-11-12T09:49:13.379Z,22.95
2022-11-12T09:50:13.020Z,22.74
2022-11-12T09:51:13.207Z,22.31
2022-11-12T09:52:13.165Z,22.84
2022-11-12T09:53:13.112Z,23.06
2022-11-12T09:54:13.153Z,22.98
2022-11-12T09:55:13.253Z,22.91
2022-11-12T09:56:13.243Z,22.52
2022-11-12T09:57:13.237Z,23.02
2022-11-12T09:58:13.232Z,23.59
2022-11-12T09:59:13.145Z,23.92
2022-11-12T10:00:13.205Z,24.13
2022-11-12T10:01:13.284Z,24.26
2022-11-12T10:02:13.204Z,24.14
2022-11-12T10:03:13.226Z,24.18
2022-11-12T10:04:13.268Z,24.40
2022-11-12T10:05:13.316Z,24.44
2022-11-12T10:06:18.182Z,23.52
2022-11-12T10:07:14.385Z,22.46
2022-11-12T10:08:13.404Z,21.60
2022-11-12T10:09:13.416Z,21.10
2022-11-12T10:10:13.482Z,20.50
2022-11-12T10:11:13.531Z,19.84
2022-11-12T10:12:13.596Z,19.12
2022-11-12T10:13:13.669Z,18.83
2022-11-12T10:14:13.745Z,18.78
2022-11-12T10:15:13.956Z,18.78
2022-11-12T10:16:13.876Z,18.73
2022-11-12T10:17:13.923Z,18.63
2022-11-12T10:18:14.070Z,18.39
2022-11-12T10:19:14.006Z,18.30
2022-11-12T10:20:14.686Z,18.36
2022-11-12T10:21:14.009Z,18.36
2022-11-12T10:22:14.098Z,18.36
2022-11-12T10:23:14.182Z,18.36
2022-11-12T10:24:14.290Z,18.18
2022-11-12T10:25:14.292Z,18.11
2022-11-12T10:26:14.409Z,18.06
2022-11-12T10:27:14.425Z,18.12
2022-11-12T10:28:14.666Z,18.26
2022-11-12T10:29:14.649Z,18.41
2022-11-12T10:30:14.791Z,18.30
2022-11-12T10:31:14.823Z,18.41
2022-11-12T10:32:14.920Z,18.55
2022-11-12T10:33:15.046Z,18.76
2022-11-12T10:34:15.131Z,18.48
2022-11-12T10:35:15.078Z,18.13
2022-11-12T10:36:15.180Z,17.82
2022-11-12T10:37:15.276Z,17.79
2022-11-12T10:38:15.987Z,17.91
2022-11-12T10:39:15.417Z,18.12
2022-11-12T10:40:15.732Z,18.42
2022-11-12T10:41:15.710Z,18.48
2022-11-12T10:42:15.717Z,18.73
2022-11-12T10:43:15.831Z,18.98
2022-11-12T10:44:15.927Z,19.26
2022-11-12T10:45:16.121Z,19.23
2022-11-12T10:46:16.095Z,19.24
2022-11-12T10:47:16.206Z,19.59
2022-11-12T10:48:16.396Z,19.87
2022-11-12T10:49:16.461Z,20.15
2022-11-12T10:50:16.714Z,20.46
2022-11-12T10:51:16.587Z,20.56
2022-11-12T10:52:16.717Z,20.74
2022-11-12T10:53:16.805Z,21.17
2022-11-12T10:54:16.890Z,21.54
2022-11-12T10:55:17.005Z,21.84
2022-11-12T10:56:17.101Z,21.99
2022-11-12T10:57:17.245Z,21.63
2022-11-12T10:58:17.230Z,21.45
2022-11-12T10:59:17.304Z,21.08
2022-11-12T11:00:17.464Z,21.04
2022-11-12T11:01:17.707Z,20.96
2022-11-12T11:02:17.590Z,20.74
2022-11-12T11:03:17.584Z,20.83
2022-11-12T11:04:17.716Z,20.86
2022-11-12T11:05:17.806Z,20.88
2022-11-12T11:06:18.080Z,20.68
2022-11-12T11:07:18.173Z,20.63
2022-11-12T11:08:18.056Z,20.67
2022-11-12T11:09:18.009Z,20.44
2022-11-12T11:10:18.119Z,20.11
2022-11-12T11:11:18.489Z,20.04
2022-11-12T11:12:18.276Z,20.00
2022-11-12T11:13:18.275Z,19.93
2022-11-12T11:14:18.931Z,19.97
2022-11-12T11:15:18.482Z,19.84
2022-11-12T11:16:18.480Z,19.93
2022-11-12T11:17:18.632Z,20.07
2022-11-12T11:18:18.594Z,20.14
2022-11-12T11:19:18.706Z,20.17
2022-11-12T11:20:18.849Z,20.30
2022-11-12T11:21:18.831Z,20.04
2022-11-12T11:22:18.887Z,19.87
2022-11-12T11:23:18.980Z,19.90
2022-11-12T11:24:19.063Z,20.07
2022-11-12T11:25:19.190Z,20.26
2022-11-12T11:26:19.973Z,20.18
2022-11-12T11:27:19.280Z,20.26
2022-11-12T11:28:19.380Z,20.50
2022-11-12T11:29:19.471Z,20.67
2022-11-12T11:30:19.604Z,20.39
2022-11-12T11:31:19.648Z,20.18
2022-11-12T11:32:19.884Z,20.24
2022-11-12T11:33:20.203Z,20.33
2022-11-12T11:34:19.884Z,20.48
2022-11-12T11:35:20.000Z,20.36
2022-11-12T11:36:19.997Z,20.02
2022-11-12T11:37:20.112Z,19.49
2022-11-12T11:38:20.208Z,18.94
2022-11-12T11:39:20.303Z,18.24
2022-11-12T11:40:20.437Z,17.97
2022-11-12T11:41:20.445Z,18.09
2022-11-12T11:42:20.543Z,18.41
2022-11-12T11:43:20.678Z,18.73
2022-11-12T11:44:20.728Z,19.15
2022-11-12T11:45:20.769Z,19.35
2022-11-12T11:46:20.772Z,19.48
2022-11-12T11:47:20.883Z,19.71
2022-11-12T11:48:21.378Z,19.66
2022-11-12T11:49:21.053Z,19.48
2022-11-12T11:50:21.238Z,19.49
2022-11-12T11:51:25.856Z,19.77
2022-11-12T11:52:22.290Z,19.93
2022-11-12T11:53:21.402Z,19.96
2022-11-12T11:54:21.563Z,19.99
2022-11-12T11:55:21.752Z,20.02
2022-11-12T11:56:21.689Z,19.70
2022-11-12T11:57:21.717Z,19.24
2022-11-12T11:58:21.849Z,19.27
2022-11-12T11:59:22.016Z,19.39
2022-11-12T12:00:22.134Z,19.74
2022-11-12T12:01:21.996Z,20.17
2022-11-12T12:02:21.980Z,20.78
2022-11-12T12:03:22.144Z,21.25
2022-11-12T12:04:22.198Z,21.28
2022-11-12T12:05:22.215Z,21.30
2022-11-12T12:06:23.166Z,21.29
2022-11-12T12:07:22.300Z,21.30
2022-11-12T12:08:22.324Z,21.13
2022-11-12T12:09:22.410Z,21.22
2022-11-12T12:10:22.961Z,21.40
2022-11-12T12:11:22.582Z,21.63
2022-11-12T12:12:22.581Z,21.94
2022-11-12T12:13:23.005Z,22.19
2022-11-12T12:14:23.479Z,22.08
2022-11-12T12:15:22.827Z,22.14
2022-11-12T12:16:22.858Z,22.34
2022-11-12T12:17:24.732Z,22.63
2022-11-12T12:18:24.071Z,22.59
2022-11-12T12:19:22.922Z,22.49
2022-11-12T12:20:23.032Z,22.04
2022-11-12T12:21:23.173Z,21.84
2022-11-12T12:22:23.196Z,21.99
2022-11-12T12:23:23.147Z,22.14
2022-11-12T12:24:23.216Z,22.07
2022-11-12T12:25:23.320Z,21.63
2022-11-12T12:26:23.370Z,21.08
2022-11-12T12:27:23.461Z,20.96
2022-11-12T12:28:23.638Z,21.38
2022-11-12T12:29:23.608Z,21.56
2022-11-12T12:30:23.709Z,21.29
2022-11-12T12:31:23.669Z,21.53
2022-11-12T12:32:24.603Z,22.10
2022-11-12T12:33:23.764Z,22.46
2022-11-12T12:34:23.862Z,22.84
2022-11-12T12:35:23.980Z,22.52
2022-11-12T12:36:23.932Z,22.38
2022-11-12T12:37:23.875Z,22.10
2022-11-12T12:38:25.233Z,22.12
2022-11-12T12:39:23.998Z,22.36
2022-11-12T12:40:24.097Z,22.41
2022-11-12T12:41:24.115Z,22.34
2022-11-12T12:42:24.065Z,22.16
2022-11-12T12:43:24.139Z,21.97
2022-11-12T12:44:24.238Z,21.77
2022-11-12T12:45:24.223Z,21.81
2022-11-12T12:46:24.192Z,22.12
2022-11-12T12:47:24.255Z,22.30
2022-11-12T12:48:24.633Z,22.34
2022-11-12T12:49:24.302Z,22.41
2022-11-12T12:50:24.390Z,22.76
2022-11-12T12:51:24.476Z,23.08
2022-11-12T12:52:24.533Z,23.07
2022-11-12T12:53:24.599Z,23.01
2022-11-12T12:54:24.661Z,23.18
2022-11-12T12:55:24.758Z,23.16
2022-11-12T12:56:24.730Z,23.04
2022-11-12T12:57:24.801Z,22.81
2022-11-12T12:58:25.109Z,22.43
2022-11-12T12:59:24.916Z,22.46
2022-11-12T13:00:25.120Z,22.51
2022-11-12T13:01:24.967Z,22.37
2022-11-12T13:02:25.008Z,22.30
2022-11-12T13:03:24.973Z,22.51
2022-11-12T13:04:25.148Z,22.96
2022-11-12T13:05:25.123Z,23.01
2022-11-12T13:06:25.190Z,22.92
2022-11-12T13:07:25.391Z,22.74
2022-11-12T13:08:26.254Z,22.46
2022-11-12T13:09:25.344Z,22.12